Time;durP1;ratioP1;P1;durP2;ratioP2;P2;SDS_P1;SDS_P2;PMS_P1;PMS_P2;Temp;Humidity;BMP_temperature;BMP_pressure;BME280_temperature;BME280_humidity;BME280_pressure;Samples;Min_cycle;Max_cycle;Signal;HPM_P1;HPM_P2
2023/05/20 00:00:29;;;;;;;2.95;1.23;;;9.40;99.90;;;;;;5071712;28;20130;-63
2023/05/20 00:02:56;;;;;;;2.42;1.48;;;9.40;99.90;;;;;;5071045;28;20499;-63
2023/05/20 00:05:22;;;;;;;3.00;1.60;;;9.40;99.90;;;;;;5071487;28;20119;-62
2023/05/20 00:07:48;;;;;;;2.75;1.08;;;9.40;99.90;;;;;;5089386;28;20664;-62
2023/05/20 00:10:14;;;;;;;2.55;1.00;;;9.30;99.90;;;;;;5070779;28;20054;-63
2023/05/20 00:12:40;;;;;;;4.82;1.55;;;9.30;99.90;;;;;;5071399;28;20043;-63
2023/05/20 00:15:06;;;;;;;1.70;0.98;;;9.30;99.90;;;;;;5075751;28;20071;-63
2023/05/20 00:17:32;;;;;;;6.15;1.73;;;9.30;99.90;;;;;;5091117;28;20078;-63
2023/05/20 00:19:58;;;;;;;3.13;1.63;;;9.20;99.90;;;;;;5109618;28;20496;-63
2023/05/20 00:22:25;;;;;;;1.30;0.85;;;9.20;99.90;;;;;;5091517;28;20042;-63
2023/05/20 00:24:50;;;;;;;1.20;0.88;;;9.20;99.90;;;;;;5109235;28;20042;-63
2023/05/20 00:27:16;;;;;;;4.50;1.58;;;9.10;99.90;;;;;;5091551;28;20039;-63
2023/05/20 00:29:42;;;;;;;2.63;1.17;;;9.10;99.90;;;;;;5109022;28;20146;-63
2023/05/20 00:32:08;;;;;;;2.75;1.55;;;9.10;99.90;;;;;;5074567;28;20047;-63
2023/05/20 00:34:34;;;;;;;2.22;1.70;;;9.00;99.90;;;;;;5091361;28;20039;-62
2023/05/20 00:36:59;;;;;;;2.72;1.42;;;9.00;99.90;;;;;;5109115;28;20035;-63
2023/05/20 00:39:25;;;;;;;3.05;1.30;;;9.00;99.90;;;;;;5091624;28;20088;-63
2023/05/20 00:41:51;;;;;;;2.40;1.15;;;9.00;99.90;;;;;;5091453;28;20499;-63
2023/05/20 00:44:17;;;;;;;2.90;1.33;;;9.00;99.90;;;;;;5090654;28;20044;-63
2023/05/20 00:46:44;;;;;;;3.75;1.48;;;8.90;99.90;;;;;;5094467;28;20036;-63
2023/05/20 00:49:10;;;;;;;1.98;1.10;;;8.90;99.90;;;;;;5091482;28;20052;-63
2023/05/20 00:51:36;;;;;;;2.45;1.40;;;8.90;99.90;;;;;;5091085;28;20790;-63
2023/05/20 00:54:02;;;;;;;2.30;1.20;;;8.80;99.90;;;;;;5092554;28;20483;-63
2023/05/20 00:56:28;;;;;;;3.20;1.13;;;8.80;99.90;;;;;;5091613;28;20047;-63
2023/05/20 00:58:55;;;;;;;3.10;0.95;;;8.70;99.90;;;;;;5090654;28;20044;-63
2023/05/20 01:01:21;;;;;;;2.20;1.05;;;8.70;99.90;;;;;;5091231;28;20495;-63
2023/05/20 01:03:47;;;;;;;2.85;0.98;;;8.70;99.90;;;;;;5091179;28;20119;-63
2023/05/20 01:06:13;;;;;;;2.40;1.17;;;8.70;99.90;;;;;;5073668;28;20040;-63
2023/05/20 01:08:39;;;;;;;2.47;1.33;;;8.70;99.90;;;;;;5092498;28;20046;-63
2023/05/20 01:11:21;;;;;;;1.83;1.10;;;8.70;99.90;;;;;;5092696;28;20036;-63
2023/05/20 01:13:53;;;;;;;3.85;1.02;;;8.70;99.90;;;;;;5091755;28;20468;-63
2023/05/20 01:16:22;;;;;;;5.20;1.88;;;8.60;99.90;;;;;;5092671;28;20094;-63
2023/05/20 01:18:49;;;;;;;1.30;0.75;;;8.60;99.90;;;;;;5073563;28;20044;-63
2023/05/20 01:21:17;;;;;;;2.10;1.05;;;8.60;99.90;;;;;;5092302;28;20109;-63
2023/05/20 01:23:43;;;;;;;2.72;1.30;;;8.60;99.90;;;;;;5092417;28;20036;-63
2023/05/20 01:26:12;;;;;;;6.40;1.38;;;8.60;99.90;;;;;;5091686;28;20419;-63
2023/05/20 01:28:38;;;;;;;3.03;1.53;;;8.60;99.90;;;;;;5090883;28;20633;-63
2023/05/20 01:31:10;;;;;;;3.50;1.92;;;8.60;99.90;;;;;;5092210;28;20036;-63
2023/05/20 01:33:38;;;;;;;4.82;2.13;;;8.60;99.90;;;;;;5090095;28;20181;-63
2023/05/20 01:36:05;;;;;;;4.55;2.22;;;8.60;99.90;;;;;;5092097;28;20047;-63
2023/05/20 01:38:31;;;;;;;2.28;1.10;;;8.50;99.90;;;;;;5073614;28;20399;-63
2023/05/20 01:40:58;;;;;;;3.35;1.33;;;8.60;99.90;;;;;;5090035;28;20039;-63
2023/05/20 01:43:25;;;;;;;1.83;1.25;;;8.50;99.90;;;;;;5091623;28;20097;-63
2023/05/20 01:45:51;;;;;;;2.30;1.13;;;8.50;99.90;;;;;;5091595;28;20040;-63
2023/05/20 01:48:17;;;;;;;1.73;0.93;;;8.50;99.90;;;;;;5073905;28;20134;-63
2023/05/20 01:50:43;;;;;;;5.18;1.25;;;8.50;99.90;;;;;;5093899;28;20157;-63
2023/05/20 01:53:09;;;;;;;1.88;1.10;;;8.50;99.90;;;;;;5112222;28;20549;-63
2023/05/20 01:55:35;;;;;;;1.98;1.33;;;8.50;99.90;;;;;;5076193;28;20036;-63
2023/05/20 01:58:02;;;;;;;3.15;1.42;;;8.50;99.90;;;;;;5092648;28;20559;-63
2023/05/20 02:00:27;;;;;;;2.30;1.23;;;8.40;99.90;;;;;;5093406;28;20040;-63
2023/05/20 02:02:53;;;;;;;1.48;0.85;;;8.40;99.90;;;;;;5093117;28;20099;-63
2023/05/20 02:05:19;;;;;;;1.85;1.15;;;8.40;99.90;;;;;;5111616;28;20460;-63
2023/05/20 02:07:45;;;;;;;3.40;1.42;;;8.40;99.90;;;;;;5093200;28;20044;-63
2023/05/20 02:10:11;;;;;;;5.32;1.55;;;8.40;99.90;;;;;;5093258;28;20050;-63
2023/05/20 02:12:36;;;;;;;7.30;1.50;;;8.40;99.90;;;;;;5076627;28;20043;-63
2023/05/20 02:15:03;;;;;;;2.58;1.23;;;8.40;99.90;;;;;;5092613;28;20526;-63
2023/05/20 02:17:28;;;;;;;5.18;1.60;;;8.40;99.90;;;;;;5093438;28;20201;-63
2023/05/20 02:19:54;;;;;;;2.33;1.27;;;8.40;99.90;;;;;;5093110;28;20123;-63
2023/05/20 02:22:20;;;;;;;2.40;1.27;;;8.40;99.90;;;;;;5110903;28;20119;-63
2023/05/20 02:24:46;;;;;;;4.03;1.48;;;8.30;99.90;;;;;;5093389;28;20035;-63
2023/05/20 02:27:12;;;;;;;2.65;1.33;;;8.30;99.90;;;;;;5111727;28;20043;-63
2023/05/20 02:29:38;;;;;;;2.58;1.10;;;8.30;99.90;;;;;;5092576;28;20453;-63
2023/05/20 02:32:04;;;;;;;4.60;1.63;;;8.30;99.90;;;;;;5075959;28;20069;-63
2023/05/20 02:34:30;;;;;;;3.35;1.33;;;8.30;99.90;;;;;;5093020;28;20042;-63
2023/05/20 02:36:56;;;;;;;4.95;1.55;;;8.30;99.90;;;;;;5110516;28;20093;-63
2023/05/20 02:39:22;;;;;;;2.55;1.33;;;8.40;99.90;;;;;;5092788;28;20433;-63
2023/05/20 02:41:48;;;;;;;1.80;1.20;;;8.40;99.90;;;;;;5111097;28;20039;-63
2023/05/20 02:44:14;;;;;;;2.42;1.38;;;8.40;99.90;;;;;;5092301;28;20046;-63
2023/05/20 02:46:40;;;;;;;3.95;1.95;;;8.40;99.90;;;;;;5092696;28;20071;-63
2023/05/20 02:49:06;;;;;;;1.63;1.05;;;8.40;99.90;;;;;;5092624;28;20056;-63
2023/05/20 02:51:32;;;;;;;1.90;1.35;;;8.50;99.90;;;;;;5110258;28;20051;-63
2023/05/20 02:53:58;;;;;;;2.58;1.60;;;8.50;99.90;;;;;;5110722;28;20046;-63
2023/05/20 02:56:23;;;;;;;1.80;1.02;;;8.50;99.90;;;;;;5092504;28;20118;-63
2023/05/20 02:58:49;;;;;;;2.80;1.42;;;8.50;99.90;;;;;;5091853;28;20132;-63
2023/05/20 03:01:15;;;;;;;5.18;1.48;;;8.50;99.90;;;;;;5092654;28;20552;-63
2023/05/20 03:03:41;;;;;;;4.63;1.35;;;8.50;99.90;;;;;;5091797;28;20593;-63
2023/05/20 03:06:07;;;;;;;3.10;1.60;;;8.60;99.90;;;;;;5092549;28;20043;-63
2023/05/20 03:08:33;;;;;;;3.17;1.08;;;8.50;99.90;;;;;;5110528;28;20395;-63
2023/05/20 03:11:00;;;;;;;2.08;1.23;;;8.50;99.90;;;;;;5091947;28;20051;-63
2023/05/20 03:13:25;;;;;;;2.30;1.25;;;8.50;99.90;;;;;;5092307;28;20043;-63
2023/05/20 03:15:51;;;;;;;2.85;1.38;;;8.50;99.90;;;;;;5075210;28;20058;-63
2023/05/20 03:18:17;;;;;;;3.25;1.42;;;8.50;99.90;;;;;;5109896;28;20074;-63
2023/05/20 03:20:43;;;;;;;3.13;1.60;;;8.50;99.90;;;;;;5092023;28;20577;-63
2023/05/20 03:23:09;;;;;;;2.80;1.23;;;8.40;99.90;;;;;;5092326;28;20039;-63
2023/05/20 03:25:36;;;;;;;4.18;1.40;;;8.40;99.90;;;;;;5091640;28;20079;-63
2023/05/20 03:28:02;;;;;;;2.03;1.25;;;8.40;99.90;;;;;;5110498;28;20043;-63
2023/05/20 03:30:28;;;;;;;2.63;1.40;;;8.40;99.90;;;;;;5092235;28;20042;-63
2023/05/20 03:32:57;;;;;;;5.15;1.27;;;8.40;99.90;;;;;;5091765;28;20488;-63
2023/05/20 03:35:23;;;;;;;2.80;1.23;;;8.40;99.90;;;;;;5092220;28;20091;-63
2023/05/20 03:37:52;;;;;;;2.00;1.05;;;8.40;99.90;;;;;;5091751;28;20039;-63
2023/05/20 03:40:21;;;;;;;2.30;0.98;;;8.40;99.90;;;;;;5074765;28;20039;-63
2023/05/20 03:42:48;;;;;;;4.60;1.00;;;8.40;99.90;;;;;;5110207;28;20486;-63
2023/05/20 03:45:14;;;;;;;1.83;1.10;;;8.40;99.90;;;;;;5110131;28;20115;-63
2023/05/20 03:47:40;;;;;;;1.63;0.93;;;8.40;99.90;;;;;;5109344;28;20074;-63
2023/05/20 03:50:06;;;;;;;3.53;1.33;;;8.30;99.90;;;;;;5109879;28;20059;-63
2023/05/20 03:52:33;;;;;;;4.28;1.00;;;8.40;99.90;;;;;;5091796;28;20049;-63
2023/05/20 03:54:59;;;;;;;2.72;1.42;;;8.30;99.90;;;;;;5092070;28;20428;-63
2023/05/20 03:57:25;;;;;;;2.60;1.25;;;8.30;99.90;;;;;;5092040;28;20040;-63
2023/05/20 03:59:51;;;;;;;1.58;1.10;;;8.40;99.90;;;;;;5091346;28;20053;-63
2023/05/20 04:02:17;;;;;;;3.35;1.70;;;8.40;99.90;;;;;;5091647;28;20076;-63
2023/05/20 04:04:42;;;;;;;2.10;1.08;;;8.40;99.90;;;;;;5091783;28;20043;-63
2023/05/20 04:07:09;;;;;;;1.77;1.27;;;8.50;99.90;;;;;;5109689;28;20031;-63
2023/05/20 04:09:36;;;;;;;2.97;1.25;;;8.50;99.90;;;;;;5091878;28;20035;-63
2023/05/20 04:12:02;;;;;;;2.75;1.52;;;8.60;99.90;;;;;;5109993;28;20146;-63
2023/05/20 04:14:27;;;;;;;1.92;1.20;;;8.60;99.90;;;;;;5091178;28;20048;-63
2023/05/20 04:16:53;;;;;;;3.25;1.30;;;8.60;99.90;;;;;;5091435;28;20514;-63
2023/05/20 04:19:19;;;;;;;7.03;1.25;;;8.70;99.90;;;;;;5091743;28;20097;-63
2023/05/20 04:21:45;;;;;;;1.83;0.80;;;8.70;99.90;;;;;;5094210;28;20046;-63
2023/05/20 04:24:11;;;;;;;3.67;1.23;;;8.80;99.90;;;;;;5095354;28;20050;-63
2023/05/20 04:26:37;;;;;;;1.70;1.02;;;8.90;99.90;;;;;;5113493;28;20040;-63
2023/05/20 04:29:03;;;;;;;4.63;1.13;;;8.90;99.90;;;;;;5095064;28;20480;-63
2023/05/20 04:31:30;;;;;;;3.15;1.00;;;9.00;99.90;;;;;;5113413;28;20087;-63
2023/05/20 04:33:56;;;;;;;3.03;1.35;;;9.00;99.90;;;;;;5095432;28;20629;-63
2023/05/20 04:36:27;;;;;;;1.95;1.15;;;9.00;99.90;;;;;;5113085;28;20059;-63
2023/05/20 04:38:54;;;;;;;2.10;1.30;;;9.00;99.90;;;;;;5095387;28;20032;-63
2023/05/20 04:41:19;;;;;;;6.78;1.83;;;9.10;99.90;;;;;;5095325;28;20476;-63
2023/05/20 04:43:45;;;;;;;2.17;1.10;;;9.00;99.90;;;;;;5112477;28;20127;-62
2023/05/20 04:46:11;;;;;;;3.40;1.67;;;9.10;99.90;;;;;;5094190;28;20032;-63
2023/05/20 04:48:37;;;;;;;2.50;1.38;;;9.10;99.90;;;;;;5090027;28;20420;-63
2023/05/20 04:51:03;;;;;;;1.65;0.93;;;9.00;99.90;;;;;;5091734;28;20814;-63
2023/05/20 04:53:32;;;;;;;2.63;1.00;;;9.10;99.90;;;;;;5091676;28;20130;-63
2023/05/20 04:55:58;;;;;;;3.08;1.33;;;9.10;99.90;;;;;;5089647;28;20036;-63
2023/05/20 04:58:24;;;;;;;2.08;1.10;;;9.20;99.90;;;;;;5091791;28;20036;-63
2023/05/20 05:00:51;;;;;;;1.80;0.98;;;9.30;99.90;;;;;;5090697;28;20039;-63
2023/05/20 05:03:17;;;;;;;2.63;1.15;;;9.30;99.90;;;;;;5073171;28;20430;-63
2023/05/20 05:05:43;;;;;;;6.10;1.55;;;9.40;99.90;;;;;;5090159;28;20040;-62
2023/05/20 05:08:12;;;;;;;4.03;1.25;;;9.60;99.90;;;;;;5091228;28;20112;-63
2023/05/20 05:10:38;;;;;;;2.72;1.23;;;9.70;99.90;;;;;;5090604;28;20042;-62
2023/05/20 05:13:04;;;;;;;2.03;1.10;;;9.90;99.90;;;;;;5091288;28;20444;-63
2023/05/20 05:15:29;;;;;;;3.13;1.42;;;10.10;99.90;;;;;;5092372;28;20082;-63
2023/05/20 05:17:56;;;;;;;2.10;0.98;;;10.30;99.90;;;;;;5090235;28;20450;-63
2023/05/20 05:20:22;;;;;;;2.65;1.55;;;10.50;99.90;;;;;;5091911;28;20451;-63
2023/05/20 05:22:49;;;;;;;2.15;1.05;;;10.60;99.90;;;;;;5090819;28;20075;-63
2023/05/20 05:25:15;;;;;;;2.45;1.00;;;10.70;99.90;;;;;;5088835;28;20040;-63
2023/05/20 05:27:41;;;;;;;1.35;0.80;;;10.80;99.90;;;;;;5088769;28;20051;-63
2023/05/20 05:30:07;;;;;;;1.23;0.90;;;10.80;99.90;;;;;;5089668;28;20131;-62
2023/05/20 05:32:34;;;;;;;1.02;0.63;;;10.90;99.90;;;;;;5090097;28;20461;-62
2023/05/20 05:34:59;;;;;;;1.85;0.93;;;10.90;99.90;;;;;;5089619;28;20082;-63
2023/05/20 05:37:25;;;;;;;1.70;1.00;;;10.90;99.90;;;;;;5089552;28;20044;-62
2023/05/20 05:39:51;;;;;;;4.22;1.15;;;10.90;99.90;;;;;;5089209;28;20046;-63
2023/05/20 05:42:17;;;;;;;1.83;0.82;;;10.90;99.90;;;;;;5089427;28;20043;-63
2023/05/20 05:44:43;;;;;;;2.15;0.77;;;10.90;99.90;;;;;;5090551;28;20060;-62
2023/05/20 05:47:10;;;;;;;1.20;0.63;;;10.90;99.90;;;;;;5090611;28;20044;-62
2023/05/20 05:49:36;;;;;;;3.13;1.55;;;10.90;99.90;;;;;;5102157;28;20058;-63
2023/05/20 05:52:02;;;;;;;1.35;0.90;;;11.00;99.90;;;;;;5092292;28;20083;-62
2023/05/20 05:54:28;;;;;;;2.30;1.02;;;11.00;99.90;;;;;;5092831;28;20391;-62
2023/05/20 05:56:55;;;;;;;4.75;0.85;;;11.10;99.90;;;;;;5110986;28;20042;-62
2023/05/20 05:59:21;;;;;;;2.28;1.00;;;11.20;99.90;;;;;;5075199;28;20036;-63
2023/05/20 06:01:47;;;;;;;1.45;0.90;;;11.30;99.90;;;;;;5110963;28;20035;-62
2023/05/20 06:04:13;;;;;;;1.65;0.90;;;11.50;99.90;;;;;;5092466;28;20399;-62
2023/05/20 06:06:40;;;;;;;2.25;0.65;;;11.80;99.90;;;;;;5110062;28;20038;-62
2023/05/20 06:09:06;;;;;;;2.05;1.13;;;12.10;99.90;;;;;;5092806;28;20043;-63
2023/05/20 06:11:31;;;;;;;1.48;0.63;;;12.50;99.90;;;;;;5092296;28;20040;-62
2023/05/20 06:13:57;;;;;;;2.13;0.70;;;12.70;99.90;;;;;;5091143;28;20466;-62
2023/05/20 06:16:23;;;;;;;2.22;1.27;;;12.90;99.90;;;;;;5092950;28;20049;-62
2023/05/20 06:18:49;;;;;;;1.65;0.93;;;13.00;99.90;;;;;;5111421;28;20039;-62
2023/05/20 06:21:15;;;;;;;2.35;0.88;;;13.10;99.90;;;;;;5092338;28;20706;-62
2023/05/20 06:23:41;;;;;;;1.42;0.68;;;13.30;99.90;;;;;;5076244;28;20105;-62
2023/05/20 06:26:07;;;;;;;1.05;0.65;;;13.50;99.90;;;;;;5092894;28;20040;-62
2023/05/20 06:28:33;;;;;;;1.85;0.75;;;13.80;99.90;;;;;;5110206;28;20126;-62
2023/05/20 06:30:59;;;;;;;1.35;0.73;;;14.10;99.90;;;;;;5110938;28;20044;-62
2023/05/20 06:33:26;;;;;;;0.75;0.70;;;14.30;99.90;;;;;;5075536;28;20088;-62
2023/05/20 06:35:55;;;;;;;1.52;0.55;;;14.60;99.90;;;;;;5109520;28;20044;-62
2023/05/20 06:38:22;;;;;;;1.25;0.60;;;14.90;99.90;;;;;;5110232;28;20391;-63
2023/05/20 06:40:48;;;;;;;1.60;0.73;;;15.10;99.90;;;;;;5091142;28;20487;-62
2023/05/20 06:43:15;;;;;;;1.10;0.60;;;15.30;99.90;;;;;;5091795;28;20035;-62
2023/05/20 06:45:41;;;;;;;1.08;0.40;;;15.50;99.90;;;;;;5110252;28;20031;-62
2023/05/20 06:48:07;;;;;;;1.33;0.50;;;15.70;99.90;;;;;;5109193;28;20444;-62
2023/05/20 06:50:33;;;;;;;3.13;0.75;;;15.80;99.90;;;;;;5091493;28;20051;-62
2023/05/20 06:53:00;;;;;;;1.02;0.57;;;15.90;99.90;;;;;;5110091;28;20035;-62
2023/05/20 06:55:26;;;;;;;0.75;0.40;;;16.10;99.90;;;;;;5074117;28;20039;-62
2023/05/20 06:57:52;;;;;;;1.52;0.63;;;16.10;99.90;;;;;;5091428;28;20127;-62
2023/05/20 07:00:18;;;;;;;2.50;0.77;;;16.20;99.90;;;;;;5074519;28;20066;-62
2023/05/20 07:02:45;;;;;;;1.10;0.60;;;16.30;99.90;;;;;;5109036;28;20046;-62
2023/05/20 07:05:11;;;;;;;3.05;0.80;;;16.60;99.90;;;;;;5091388;28;20515;-62
2023/05/20 07:07:38;;;;;;;1.25;0.50;;;16.70;99.90;;;;;;5109465;28;20043;-62
2023/05/20 07:10:05;;;;;;;1.55;0.68;;;16.90;99.90;;;;;;5073983;28;20116;-62
2023/05/20 07:12:31;;;;;;;1.00;0.30;;;17.00;99.90;;;;;;5091608;28;20071;-62
2023/05/20 07:14:57;;;;;;;1.13;0.40;;;17.20;99.90;;;;;;5109873;28;20052;-63
2023/05/20 07:17:24;;;;;;;1.90;0.60;;;17.30;99.90;;;;;;5109198;28;20051;-62
2023/05/20 07:19:50;;;;;;;1.80;0.40;;;17.40;99.90;;;;;;5091235;28;20483;-62
2023/05/20 07:22:16;;;;;;;0.75;0.30;;;17.60;99.90;;;;;;5091176;28;20042;-62
2023/05/20 07:24:41;;;;;;;2.67;0.73;;;17.80;99.90;;;;;;5090621;28;20083;-62
2023/05/20 07:27:07;;;;;;;2.53;0.40;;;18.00;99.90;;;;;;5091069;28;20096;-63
2023/05/20 07:29:36;;;;;;;1.40;0.40;;;18.20;99.90;;;;;;5108656;28;20084;-62
2023/05/20 07:32:04;;;;;;;0.80;0.50;;;18.30;99.90;;;;;;5109471;28;20035;-62
2023/05/20 07:34:30;;;;;;;1.33;0.60;;;18.30;99.90;;;;;;5109444;28;20490;-62
2023/05/20 07:36:56;;;;;;;1.00;0.32;;;18.40;99.90;;;;;;5073407;28;20047;-62
2023/05/20 07:39:23;;;;;;;0.73;0.38;;;18.50;99.90;;;;;;5109389;28;20039;-63
2023/05/20 07:41:49;;;;;;;0.63;0.45;;;18.70;99.90;;;;;;5074107;28;20035;-62
2023/05/20 07:44:17;;;;;;;0.52;0.28;;;18.80;99.90;;;;;;5109127;28;20437;-62
2023/05/20 07:46:43;;;;;;;0.80;0.40;;;19.00;99.90;;;;;;5091174;28;20035;-62
2023/05/20 07:49:10;;;;;;;0.43;0.30;;;19.10;99.90;;;;;;5087504;28;20512;-63
2023/05/20 07:51:36;;;;;;;0.68;0.30;;;19.30;99.90;;;;;;5070035;28;20040;-62
2023/05/20 07:54:02;;;;;;;0.93;0.40;;;19.50;99.90;;;;;;5087501;28;20250;-62
2023/05/20 07:56:28;;;;;;;0.77;0.50;;;19.60;99.90;;;;;;5090753;28;20044;-63
2023/05/20 07:58:57;;;;;;;1.20;0.35;;;19.70;99.90;;;;;;5092097;28;20040;-63
2023/05/20 08:01:23;;;;;;;1.42;0.63;;;19.80;99.90;;;;;;5092599;28;20039;-63
2023/05/20 08:03:49;;;;;;;4.07;0.63;;;19.90;99.90;;;;;;5092531;28;20066;-63
2023/05/20 08:06:16;;;;;;;1.08;0.43;;;20.00;99.90;;;;;;5092100;28;20040;-61
2023/05/20 08:08:42;;;;;;;0.63;0.28;;;20.00;99.90;;;;;;5092270;28;20044;-62
2023/05/20 08:11:08;;;;;;;0.20;0.20;;;20.10;99.90;;;;;;5092627;28;20122;-63
2023/05/20 08:13:34;;;;;;;0.82;0.30;;;20.20;99.90;;;;;;5091972;28;20467;-62
2023/05/20 08:16:02;;;;;;;1.25;0.63;;;20.40;99.90;;;;;;5092489;28;20126;-63
2023/05/20 08:18:28;;;;;;;1.25;0.47;;;20.50;99.90;;;;;;5092292;28;20044;-62
2023/05/20 08:20:54;;;;;;;0.80;0.30;;;20.60;99.90;;;;;;5092065;28;20090;-61
2023/05/20 08:23:20;;;;;;;1.05;0.40;;;20.60;99.90;;;;;;5091938;28;20036;-62
2023/05/20 08:25:47;;;;;;;1.17;0.52;;;20.70;99.90;;;;;;5091507;28;20123;-62
2023/05/20 08:28:13;;;;;;;1.13;0.50;;;20.90;99.90;;;;;;5092318;28;20448;-62
2023/05/20 08:30:40;;;;;;;2.30;0.73;;;21.00;99.90;;;;;;5092140;28;20050;-62
2023/05/20 08:33:06;;;;;;;1.77;0.45;;;21.10;99.90;;;;;;5092672;28;20048;-63
2023/05/20 08:35:32;;;;;;;0.55;0.30;;;21.10;99.90;;;;;;5092016;28;20044;-62
2023/05/20 08:37:58;;;;;;;0.68;0.35;;;21.30;99.90;;;;;;5091675;28;20044;-62
2023/05/20 08:40:25;;;;;;;2.60;0.52;;;21.20;99.90;;;;;;5092335;28;20043;-63
2023/05/20 08:42:51;;;;;;;0.88;0.40;;;21.30;99.90;;;;;;5093131;28;20036;-62
2023/05/20 08:45:19;;;;;;;0.65;0.25;;;21.40;99.90;;;;;;5091586;28;20036;-62
2023/05/20 08:47:46;;;;;;;0.77;0.43;;;21.40;99.90;;;;;;5092485;28;20040;-62
2023/05/20 08:50:12;;;;;;;0.57;0.28;;;21.40;99.90;;;;;;5073616;28;20067;-62
2023/05/20 08:52:46;;;;;;;1.08;0.45;;;21.30;99.90;;;;;;5090518;28;20533;-63
2023/05/20 08:55:40;;;;;;;1.20;0.50;;;21.20;99.20;;;;;;5089736;28;20076;-62
2023/05/20 08:58:06;;;;;;;1.00;0.40;;;21.10;99.90;;;;;;5060756;28;20519;-61
2023/05/20 09:00:32;;;;;;;0.90;0.50;;;21.10;99.90;;;;;;5091361;28;20128;-62
2023/05/20 09:02:59;;;;;;;1.00;0.28;;;21.30;99.90;;;;;;5090498;28;20036;-62
2023/05/20 09:05:26;;;;;;;1.00;0.40;;;21.40;99.90;;;;;;5091616;28;20044;-61
2023/05/20 09:07:52;;;;;;;0.63;0.32;;;21.50;99.90;;;;;;5070345;28;20119;-62
2023/05/20 09:10:19;;;;;;;0.82;0.40;;;21.50;99.90;;;;;;5086494;28;20047;-61
2023/05/20 09:12:44;;;;;;;0.68;0.30;;;21.50;99.90;;;;;;5076388;28;20035;-62
2023/05/20 09:15:10;;;;;;;1.40;0.40;;;21.50;99.90;;;;;;5089311;28;20522;-62
2023/05/20 09:17:38;;;;;;;1.42;0.60;;;21.70;99.90;;;;;;5091194;28;20040;-62
2023/05/20 09:20:10;;;;;;;1.48;0.50;;;21.80;99.90;;;;;;5089907;28;20588;-62
2023/05/20 09:22:37;;;;;;;1.52;0.60;;;22.00;99.90;;;;;;5090745;28;20048;-62
2023/05/20 09:25:04;;;;;;;1.40;0.40;;;22.10;99.90;;;;;;5086774;28;20052;-62
2023/05/20 09:27:29;;;;;;;0.98;0.40;;;22.00;99.90;;;;;;5069760;28;20106;-61
2023/05/20 09:29:55;;;;;;;0.93;0.50;;;22.10;99.90;;;;;;5068803;28;20045;-62
2023/05/20 09:32:23;;;;;;;2.30;0.50;;;22.10;96.50;;;;;;5069533;28;20040;-62
2023/05/20 09:34:49;;;;;;;1.67;0.70;;;22.20;98.70;;;;;;5071166;28;20047;-62
2023/05/20 09:37:20;;;;;;;1.70;0.68;;;22.20;98.70;;;;;;5068964;28;20519;-62
2023/05/20 09:39:59;;;;;;;0.95;0.65;;;22.20;98.80;;;;;;5053064;28;20131;-63
2023/05/20 09:42:36;;;;;;;0.93;0.50;;;22.30;97.20;;;;;;5069388;28;20044;-62
2023/05/20 09:45:04;;;;;;;1.67;0.70;;;22.40;97.50;;;;;;5069418;28;20739;-62
2023/05/20 09:47:31;;;;;;;1.02;0.47;;;22.50;97.20;;;;;;5052716;28;20436;-62
2023/05/20 09:49:57;;;;;;;1.10;0.50;;;22.50;95.40;;;;;;5040416;28;1262265;-61
2023/05/20 09:52:25;;;;;;;0.57;0.30;;;22.50;95.70;;;;;;5073971;28;20089;-62
2023/05/20 09:54:55;;;;;;;0.77;0.45;;;22.60;94.90;;;;;;5073372;28;20435;-62
2023/05/20 09:57:21;;;;;;;1.00;0.55;;;22.70;95.30;;;;;;5072781;28;20081;-62
2023/05/20 09:59:47;;;;;;;1.25;0.50;;;22.80;95.20;;;;;;5073930;28;20051;-62
2023/05/20 10:02:13;;;;;;;1.83;0.60;;;22.80;94.10;;;;;;5073216;28;20051;-62
2023/05/20 10:04:45;;;;;;;1.58;0.43;;;22.80;94.30;;;;;;5072609;28;20040;-62
2023/05/20 10:07:49;;;;;;;1.13;0.47;;;22.90;92.20;;;;;;5091703;28;20036;-62
2023/05/20 10:10:49;;;;;;;1.27;0.40;;;22.90;93.90;;;;;;5060521;28;20054;-62
2023/05/20 10:13:48;;;;;;;1.17;0.55;;;23.00;90.10;;;;;;4972985;28;20550;-62
2023/05/20 10:16:55;;;;;;;2.03;0.40;;;22.90;93.20;;;;;;4972934;28;20760;-61
2023/05/20 10:19:32;;;;;;;1.65;0.40;;;23.20;93.60;;;;;;4966394;28;20155;-63
2023/05/20 10:22:03;;;;;;;1.40;0.80;;;23.50;91.50;;;;;;4972848;28;20439;-61
2023/05/20 10:24:40;;;;;;;2.15;0.50;;;23.50;91.00;;;;;;4989034;28;20046;-62
2023/05/20 10:27:13;;;;;;;1.48;0.45;;;23.40;86.70;;;;;;4972792;28;20675;-61
2023/05/20 10:29:56;;;;;;;1.00;0.47;;;23.10;88.80;;;;;;4972985;28;20093;-62
2023/05/20 10:32:26;;;;;;;1.27;0.55;;;22.90;90.60;;;;;;4988520;28;20034;-61
2023/05/20 10:35:03;;;;;;;0.60;0.28;;;22.80;89.80;;;;;;4972442;28;20045;-61
2023/05/20 10:37:40;;;;;;;0.98;0.43;;;22.70;90.10;;;;;;4972440;28;20050;-62
2023/05/20 10:40:11;;;;;;;0.65;0.40;;;22.70;88.60;;;;;;4988585;28;20524;-62
2023/05/20 10:42:37;;;;;;;0.93;0.32;;;22.60;90.30;;;;;;4989092;28;20065;-61
2023/05/20 10:45:03;;;;;;;2.05;0.60;;;22.60;90.60;;;;;;4988671;28;20045;-61
2023/05/20 10:47:30;;;;;;;1.40;0.60;;;22.60;87.40;;;;;;4988093;28;20050;-61
2023/05/20 10:49:57;;;;;;;1.00;0.63;;;22.60;89.00;;;;;;5037707;28;20052;-62
2023/05/20 10:52:24;;;;;;;0.80;0.30;;;22.60;88.90;;;;;;5090389;28;20048;-62
2023/05/20 10:54:53;;;;;;;0.82;0.60;;;22.60;87.10;;;;;;5071760;28;20051;-62
2023/05/20 10:57:19;;;;;;;;;;;22.50;88.00;;;;;;5090995;28;20044;-63
2023/05/20 10:59:46;;;;;;;0.80;0.45;;;22.20;85.80;;;;;;5089768;28;20411;-61
2023/05/20 11:02:15;;;;;;;0.65;0.30;;;21.90;84.80;;;;;;5072419;28;20051;-62
2023/05/20 11:04:44;;;;;;;0.57;0.35;;;21.70;84.80;;;;;;5072533;28;20047;-63
2023/05/20 11:07:10;;;;;;;2.22;0.38;;;21.90;88.10;;;;;;5071544;28;20032;-62
2023/05/20 11:09:36;;;;;;;1.27;0.57;;;22.20;85.90;;;;;;5072329;28;20035;-62
2023/05/20 11:12:02;;;;;;;2.63;0.32;;;21.90;82.50;;;;;;5072437;28;20397;-62
2023/05/20 11:14:29;;;;;;;0.82;0.40;;;21.80;87.40;;;;;;5089785;28;20120;-62
2023/05/20 11:16:59;;;;;;;0.63;0.32;;;22.00;88.10;;;;;;5055462;28;20040;-62
2023/05/20 11:19:26;;;;;;;1.88;0.57;;;22.20;87.00;;;;;;5072244;28;20040;-63
2023/05/20 11:21:52;;;;;;;0.93;0.40;;;22.30;83.60;;;;;;5071607;28;20105;-62
2023/05/20 11:24:24;;;;;;;4.03;0.85;;;22.40;82.60;;;;;;5071726;28;20079;-62
2023/05/20 11:26:51;;;;;;;0.63;0.43;;;22.30;84.50;;;;;;5072092;28;20036;-62
2023/05/20 11:29:18;;;;;;;1.23;0.60;;;22.10;83.20;;;;;;5071202;28;20085;-62
2023/05/20 11:31:45;;;;;;;0.77;0.40;;;21.90;82.70;;;;;;5071891;28;20067;-61
2023/05/20 11:34:11;;;;;;;0.75;0.38;;;21.70;83.00;;;;;;5071616;28;20090;-61
2023/05/20 11:36:44;;;;;;;1.77;0.57;;;21.70;85.40;;;;;;5071593;28;20114;-62
2023/05/20 11:39:12;;;;;;;1.20;0.50;;;21.80;86.00;;;;;;5071759;28;20048;-61
2023/05/20 11:41:38;;;;;;;1.27;0.50;;;21.90;87.00;;;;;;5071103;28;20127;-61
2023/05/20 11:44:08;;;;;;;0.77;0.45;;;21.90;86.60;;;;;;5071660;28;20047;-62
2023/05/20 11:46:41;;;;;;;1.30;0.60;;;21.90;87.40;;;;;;5072067;28;20043;-63
2023/05/20 11:49:07;;;;;;;1.13;0.50;;;21.90;83.20;;;;;;5071148;28;20445;-63
2023/05/20 11:51:33;;;;;;;1.73;0.60;;;22.10;86.50;;;;;;5071917;28;20070;-61
2023/05/20 11:54:01;;;;;;;1.20;0.52;;;22.50;87.20;;;;;;5054785;28;20691;-61
2023/05/20 11:56:32;;;;;;;3.03;0.82;;;22.80;86.90;;;;;;5089022;28;20048;-62
2023/05/20 11:59:02;;;;;;;2.70;0.60;;;22.90;88.20;;;;;;5089381;28;20145;-62
2023/05/20 12:01:42;;;;;;;3.33;1.40;;;23.10;86.40;;;;;;5071670;28;20062;-62
2023/05/20 12:04:08;;;;;;;1.13;0.50;;;23.10;85.70;;;;;;5088769;28;20043;-62
2023/05/20 12:06:38;;;;;;;1.75;0.60;;;22.90;87.20;;;;;;5071501;28;20032;-62
2023/05/20 12:09:06;;;;;;;2.67;0.63;;;23.00;86.30;;;;;;5089521;28;20051;-62
2023/05/20 12:11:36;;;;;;;0.93;0.50;;;23.20;86.50;;;;;;5089107;28;20392;-62
2023/05/20 12:14:05;;;;;;;2.80;0.60;;;23.20;77.90;;;;;;5071163;28;20051;-62
2023/05/20 12:16:32;;;;;;;0.97;0.63;;;22.90;81.90;;;;;;5071301;28;20044;-61
2023/05/20 12:18:58;;;;;;;0.85;0.55;;;22.60;80.90;;;;;;5089528;28;20055;-63
2023/05/20 12:21:24;;;;;;;3.10;0.63;;;22.50;80.70;;;;;;5089495;28;20036;-62
2023/05/20 12:23:56;;;;;;;0.98;0.40;;;22.40;81.00;;;;;;5088842;28;20036;-63
2023/05/20 12:26:26;;;;;;;0.57;0.30;;;22.30;81.80;;;;;;5054603;28;20044;-61
2023/05/20 12:28:52;;;;;;;2.33;0.77;;;22.10;81.60;;;;;;5054601;28;20040;-62
2023/05/20 12:31:18;;;;;;;1.27;0.50;;;22.00;82.60;;;;;;5070724;28;20060;-61
2023/05/20 12:33:44;;;;;;;2.15;0.40;;;22.20;83.90;;;;;;5070997;28;20184;-62
2023/05/20 12:36:10;;;;;;;1.88;0.50;;;22.30;84.50;;;;;;5071287;28;20087;-62
2023/05/20 12:38:36;;;;;;;1.15;0.70;;;22.20;83.30;;;;;;5088535;28;20039;-62
2023/05/20 12:41:02;;;;;;;0.80;0.50;;;22.20;81.60;;;;;;5105801;28;20039;-62
2023/05/20 12:43:27;;;;;;;1.17;0.63;;;22.20;82.70;;;;;;5095368;28;20031;-62
2023/05/20 12:45:53;;;;;;;1.08;0.40;;;22.00;81.90;;;;;;5077503;28;20036;-62
2023/05/20 12:48:19;;;;;;;1.00;0.50;;;21.60;82.50;;;;;;5094521;28;20411;-62
2023/05/20 12:50:45;;;;;;;4.25;0.98;;;21.50;84.10;;;;;;5095019;28;20079;-62